createdAt,value
2022-08-22T00:01:06.067Z,61.12
2022-08-22T00:02:49.631Z,62.25
2022-08-22T00:02:55.614Z,61.22
2022-08-22T00:03:36.456Z,60.79
2022-08-22T00:06:09.318Z,60.68
2022-08-22T00:08:40.132Z,60.56
2022-08-22T00:11:09.004Z,60.48
2022-08-22T00:13:39.728Z,60.79
2022-08-22T00:16:09.074Z,60.63
2022-08-22T00:18:38.307Z,60.51
2022-08-22T00:21:07.420Z,60.46
2022-08-22T00:23:35.893Z,60.81
2022-08-22T00:26:05.096Z,60.62
2022-08-22T00:28:35.013Z,60.30
2022-08-22T00:31:11.693Z,60.43
2022-08-22T00:33:41.711Z,60.73
2022-08-22T00:36:14.612Z,60.23
2022-08-22T00:38:43.278Z,60.28
2022-08-22T00:41:11.715Z,60.57
2022-08-22T00:44:06.397Z,60.53
2022-08-22T00:46:42.669Z,60.36
2022-08-22T00:49:17.532Z,59.90
2022-08-22T00:52:06.205Z,60.19
2022-08-22T00:54:39.944Z,59.92
2022-08-22T00:57:13.029Z,60.21
2022-08-22T00:59:44.534Z,60.20
2022-08-22T01:02:19.605Z,60.26
2022-08-22T01:05:01.168Z,60.22
2022-08-22T01:07:42.614Z,60.22
2022-08-22T01:10:16.577Z,60.13
2022-08-22T01:12:48.949Z,59.93
2022-08-22T01:15:17.176Z,60.07
2022-08-22T01:18:00.191Z,60.14
2022-08-22T01:20:48.837Z,59.75
2022-08-22T01:23:26.627Z,59.96
2022-08-22T01:26:12.978Z,60.05
2022-08-22T01:28:58.707Z,60.02
2022-08-22T01:31:47.220Z,60.08
2022-08-22T01:34:33.488Z,60.02
2022-08-22T01:37:07.583Z,60.04
2022-08-22T01:39:39.877Z,59.79
2022-08-22T01:42:22.866Z,60.23
2022-08-22T01:45:14.714Z,59.90
2022-08-22T01:47:43.920Z,60.12
2022-08-22T01:50:12.728Z,60.21
2022-08-22T01:52:43.196Z,59.77
2022-08-22T01:55:12.195Z,60.07
2022-08-22T01:57:52.644Z,59.74
2022-08-22T02:00:34.819Z,59.76
2022-08-22T02:03:06.595Z,59.75
2022-08-22T02:05:37.219Z,60.09
2022-08-22T02:08:06.881Z,59.90
2022-08-22T02:10:52.380Z,59.78
2022-08-22T02:13:23.440Z,59.80
2022-08-22T02:15:51.811Z,59.84
2022-08-22T02:18:21.886Z,59.54
2022-08-22T02:20:57.913Z,59.58
2022-08-22T02:23:29.540Z,59.62
2022-08-22T02:25:57.816Z,59.63
2022-08-22T02:28:30.283Z,59.66
2022-08-22T02:31:01.212Z,59.67
2022-08-22T02:33:31.002Z,59.65
2022-08-22T02:36:02.547Z,59.63
2022-08-22T02:38:32.345Z,59.52
2022-08-22T02:41:06.031Z,59.42
2022-08-22T02:43:37.035Z,59.47
2022-08-22T02:46:07.496Z,59.54
2022-08-22T02:48:35.923Z,59.64
2022-08-22T02:51:05.257Z,59.59
2022-08-22T02:53:38.112Z,59.55
2022-08-22T02:56:07.563Z,59.37
2022-08-22T02:58:37.353Z,59.47
2022-08-22T03:01:15.437Z,59.35
2022-08-22T03:03:44.094Z,59.48
2022-08-22T03:06:26.543Z,59.28
2022-08-22T03:09:03.473Z,59.66
2022-08-22T03:11:31.634Z,59.58
2022-08-22T03:14:10.420Z,59.37
2022-08-22T03:16:39.698Z,59.53
2022-08-22T03:19:18.502Z,59.40
2022-08-22T03:21:46.761Z,59.43
2022-08-22T03:24:17.517Z,59.46
2022-08-22T03:26:46.008Z,59.30
2022-08-22T03:29:14.519Z,59.21
2022-08-22T03:31:50.160Z,59.32
2022-08-22T03:34:20.252Z,59.32
2022-08-22T03:36:48.316Z,59.37
2022-08-22T03:39:19.063Z,59.56
2022-08-22T03:42:04.354Z,59.35
2022-08-22T03:44:39.602Z,59.28
2022-08-22T03:47:16.035Z,59.14
2022-08-22T03:49:48.317Z,59.23
2022-08-22T03:52:20.893Z,59.31
2022-08-22T03:54:57.567Z,59.37
2022-08-22T03:57:45.886Z,59.32
2022-08-22T04:00:24.968Z,59.41
2022-08-22T04:02:59.321Z,59.37
2022-08-22T04:05:34.803Z,59.11
2022-08-22T04:08:10.056Z,59.02
2022-08-22T04:10:52.668Z,59.18
2022-08-22T04:13:32.749Z,59.09
2022-08-22T04:16:15.451Z,59.19
2022-08-22T04:19:04.127Z,59.37
2022-08-22T04:21:43.016Z,59.22
2022-08-22T04:24:16.833Z,59.24
2022-08-22T04:26:46.251Z,59.16
2022-08-22T04:29:15.803Z,59.26
2022-08-22T04:31:47.086Z,58.81
2022-08-22T04:34:17.182Z,59.25
2022-08-22T04:36:46.020Z,59.18
2022-08-22T04:39:18.465Z,59.08
2022-08-22T04:41:49.006Z,59.00
2022-08-22T04:44:18.683Z,59.35
2022-08-22T04:46:46.819Z,59.07
2022-08-22T04:49:15.734Z,59.17
2022-08-22T04:51:45.760Z,59.17
2022-08-22T04:54:18.006Z,59.37
2022-08-22T04:56:50.693Z,59.34
2022-08-22T04:59:18.616Z,59.24
2022-08-22T05:01:47.798Z,59.41
2022-08-22T05:04:18.570Z,59.44
2022-08-22T05:06:47.371Z,59.61
2022-08-22T05:09:16.440Z,59.55
2022-08-22T05:11:44.800Z,59.32
2022-08-22T05:14:15.253Z,59.55
2022-08-22T05:16:43.038Z,59.27
2022-08-22T05:19:15.809Z,59.42
2022-08-22T05:21:44.791Z,59.42
2022-08-22T05:24:13.537Z,59.53
2022-08-22T05:26:42.839Z,59.68
2022-08-22T05:29:10.602Z,59.69
2022-08-22T05:31:40.356Z,59.65
2022-08-22T05:34:08.928Z,59.75
2022-08-22T05:36:37.849Z,59.79
2022-08-22T05:39:06.199Z,59.93
2022-08-22T05:41:34.014Z,59.97
2022-08-22T05:44:02.108Z,59.96
2022-08-22T05:46:33.212Z,59.80
2022-08-22T05:49:02.489Z,59.81
2022-08-22T05:51:31.264Z,60.04
2022-08-22T05:54:04.144Z,60.07
2022-08-22T05:56:33.173Z,60.09
2022-08-22T05:59:02.781Z,60.19
2022-08-22T06:01:37.113Z,60.08
2022-08-22T06:04:09.649Z,60.40
2022-08-22T06:06:39.718Z,60.21
2022-08-22T06:09:08.148Z,60.39
2022-08-22T06:11:37.805Z,60.33
2022-08-22T06:14:08.425Z,60.48
2022-08-22T06:16:39.715Z,60.50
2022-08-22T06:19:19.873Z,60.37
2022-08-22T06:21:48.279Z,60.48
2022-08-22T06:24:18.929Z,60.45
2022-08-22T06:26:48.854Z,60.35
2022-08-22T06:29:17.762Z,60.52
2022-08-22T06:31:45.870Z,60.54
2022-08-22T06:34:15.023Z,60.84
2022-08-22T06:36:44.793Z,60.56
2022-08-22T06:39:16.010Z,60.74
2022-08-22T06:41:45.068Z,60.70
2022-08-22T06:44:14.950Z,60.64
2022-08-22T06:46:42.539Z,60.90
2022-08-22T06:49:10.215Z,60.62
2022-08-22T06:51:38.031Z,61.01
2022-08-22T06:54:08.108Z,61.04
2022-08-22T06:56:36.605Z,61.20
2022-08-22T06:59:04.490Z,61.18
2022-08-22T07:01:35.077Z,61.48
2022-08-22T07:04:05.092Z,61.52
2022-08-22T07:06:33.371Z,61.83
2022-08-22T07:09:06.668Z,61.92
2022-08-22T07:11:38.003Z,61.67
2022-08-22T07:14:05.947Z,61.82
2022-08-22T07:16:34.468Z,61.87
2022-08-22T07:19:02.116Z,62.12
2022-08-22T07:21:30.330Z,62.22
2022-08-22T07:24:00.931Z,62.27
2022-08-22T07:26:30.063Z,62.30
2022-08-22T07:28:59.700Z,62.42
2022-08-22T07:31:38.155Z,62.48
2022-08-22T07:34:10.712Z,62.83
2022-08-22T07:36:40.411Z,62.58
2022-08-22T07:39:16.882Z,62.66
2022-08-22T07:41:51.211Z,62.77
2022-08-22T07:44:20.423Z,62.84
2022-08-22T07:46:48.942Z,62.79
2022-08-22T07:49:17.402Z,62.38
2022-08-22T07:51:45.444Z,62.30
2022-08-22T07:54:13.862Z,62.33
2022-08-22T07:56:42.378Z,62.74
2022-08-22T07:59:13.218Z,62.71
2022-08-22T08:01:43.592Z,63.01
2022-08-22T08:04:12.565Z,62.82
2022-08-22T08:06:40.124Z,62.89
2022-08-22T08:09:07.688Z,62.98
2022-08-22T08:11:35.887Z,62.90
2022-08-22T08:14:04.272Z,62.57
2022-08-22T08:16:32.546Z,62.65
2022-08-22T08:19:01.685Z,62.71
2022-08-22T08:21:29.875Z,62.71
2022-08-22T08:23:57.818Z,62.52
2022-08-22T08:26:26.053Z,62.54
2022-08-22T08:28:53.135Z,62.95
2022-08-22T08:31:21.735Z,62.70
2022-08-22T08:33:49.888Z,62.80
2022-08-22T08:36:27.885Z,62.24
2022-08-22T08:38:56.744Z,61.58
2022-08-22T08:41:37.452Z,61.90
2022-08-22T08:44:07.057Z,60.20
2022-08-22T08:46:55.401Z,59.95
2022-08-22T08:49:26.788Z,60.21
2022-08-22T08:52:01.177Z,59.76
2022-08-22T08:54:50.013Z,59.11
2022-08-22T08:57:19.483Z,59.21
2022-08-22T08:59:49.616Z,58.39
2022-08-22T09:02:27.630Z,58.52
2022-08-22T09:05:24.518Z,58.11
2022-08-22T09:07:56.820Z,58.30
2022-08-22T09:10:43.965Z,57.35
2022-08-22T09:13:40.873Z,56.98
2022-08-22T09:16:16.186Z,57.59
2022-08-22T09:18:49.855Z,57.63
2022-08-22T09:21:34.626Z,57.67
2022-08-22T09:24:19.933Z,57.94
2022-08-22T09:26:52.748Z,57.53
2022-08-22T09:29:54.767Z,57.42
2022-08-22T09:32:28.583Z,57.52
2022-08-22T09:34:59.019Z,57.15
2022-08-22T09:37:30.483Z,56.81
2022-08-22T09:40:00.370Z,56.33
2022-08-22T09:42:31.584Z,56.05
2022-08-22T09:45:18.742Z,56.14
2022-08-22T09:47:48.138Z,56.19
2022-08-22T09:50:17.624Z,56.20
2022-08-22T09:52:51.373Z,55.94
2022-08-22T09:55:35.015Z,55.63
2022-08-22T09:58:05.727Z,56.15
2022-08-22T10:00:44.025Z,55.60
2022-08-22T10:03:13.546Z,56.19
2022-08-22T10:05:44.896Z,55.97
2022-08-22T10:08:20.241Z,55.53
2022-08-22T10:11:28.826Z,54.92
2022-08-22T10:14:01.475Z,54.71
2022-08-22T10:16:50.860Z,54.05
2022-08-22T10:19:19.036Z,54.46
2022-08-22T10:21:49.774Z,55.36
2022-08-22T10:24:25.736Z,55.34
2022-08-22T10:26:53.913Z,54.62
2022-08-22T10:29:42.970Z,53.38
2022-08-22T10:32:16.041Z,53.15
2022-08-22T10:34:44.300Z,53.83
2022-08-22T10:37:14.054Z,53.31
2022-08-22T10:39:44.010Z,53.25
2022-08-22T10:42:25.424Z,54.08
2022-08-22T10:44:59.198Z,53.08
2022-08-22T10:47:29.517Z,53.29
2022-08-22T10:49:58.288Z,53.38
2022-08-22T10:52:28.686Z,53.29
2022-08-22T10:54:57.449Z,53.17
2022-08-22T10:57:33.950Z,53.48
2022-08-22T11:00:03.172Z,53.45
2022-08-22T11:02:39.441Z,52.92
2022-08-22T11:05:17.615Z,54.11
2022-08-22T11:07:48.681Z,53.80
2022-08-22T11:10:22.578Z,52.45
2022-08-22T11:12:53.729Z,50.75
2022-08-22T11:15:26.169Z,50.74
2022-08-22T11:18:12.957Z,51.73
2022-08-22T11:20:42.626Z,52.47
2022-08-22T11:23:14.657Z,51.66
2022-08-22T11:25:54.021Z,52.70
2022-08-22T11:28:42.843Z,51.39
2022-08-22T11:31:12.634Z,51.27
2022-08-22T11:33:47.383Z,50.18
2022-08-22T11:36:26.748Z,50.05
2022-08-22T11:39:03.391Z,49.88
2022-08-22T11:41:32.396Z,49.69
2022-08-22T11:44:01.279Z,49.08
2022-08-22T11:46:31.617Z,49.17
2022-08-22T11:49:04.388Z,49.26
2022-08-22T11:51:46.094Z,49.29
2022-08-22T11:54:19.931Z,49.88
2022-08-22T11:56:48.906Z,49.37
2022-08-22T11:59:19.232Z,49.78
2022-08-22T12:01:52.599Z,48.81
2022-08-22T12:04:21.998Z,48.83
2022-08-22T12:06:51.746Z,49.27
2022-08-22T12:09:24.465Z,49.15
2022-08-22T12:12:18.142Z,49.16
2022-08-22T12:14:47.683Z,48.48
2022-08-22T12:17:22.853Z,48.08
2022-08-22T12:20:18.612Z,48.18
2022-08-22T12:22:53.446Z,49.04
2022-08-22T12:25:24.554Z,48.33
2022-08-22T12:27:55.504Z,49.27
2022-08-22T12:30:29.774Z,49.51
2022-08-22T12:33:21.925Z,48.53
2022-08-22T12:35:55.078Z,48.98
2022-08-22T12:38:37.740Z,50.25
2022-08-22T12:41:27.881Z,50.22
2022-08-22T12:43:58.879Z,49.06
2022-08-22T12:46:29.057Z,50.02
2022-08-22T12:49:14.726Z,49.30
2022-08-22T12:51:46.827Z,48.50
2022-08-22T12:54:33.105Z,47.05
2022-08-22T12:57:03.193Z,48.76
2022-08-22T12:59:31.507Z,47.74
2022-08-22T13:02:00.848Z,49.05
2022-08-22T13:04:32.630Z,48.02
2022-08-22T13:07:06.561Z,47.71
2022-08-22T13:09:35.654Z,47.76
2022-08-22T13:12:04.426Z,48.02
2022-08-22T13:14:33.896Z,47.21
2022-08-22T13:17:10.183Z,48.00
2022-08-22T13:19:54.237Z,48.27
2022-08-22T13:22:25.594Z,49.06
2022-08-22T13:24:54.998Z,48.13
2022-08-22T13:27:23.878Z,48.20
2022-08-22T13:29:57.078Z,49.44
2022-08-22T13:32:26.519Z,48.43
2022-08-22T13:34:55.740Z,47.63
2022-08-22T13:37:29.965Z,46.62
2022-08-22T13:39:59.753Z,47.07
2022-08-22T13:42:29.989Z,46.59
2022-08-22T13:44:59.030Z,46.79
2022-08-22T13:47:31.596Z,47.18
2022-08-22T13:50:04.518Z,46.54
2022-08-22T13:52:33.920Z,46.12
2022-08-22T13:55:12.583Z,47.12
2022-08-22T13:57:42.213Z,47.63
2022-08-22T14:00:11.350Z,48.54
2022-08-22T14:02:43.236Z,47.87
2022-08-22T14:05:11.922Z,47.87
2022-08-22T14:07:41.965Z,48.15
2022-08-22T14:10:15.079Z,47.41
2022-08-22T14:12:50.796Z,48.10
2022-08-22T14:15:19.658Z,48.59
2022-08-22T14:17:53.736Z,48.40
2022-08-22T14:20:32.426Z,48.25
2022-08-22T14:23:04.222Z,49.56
2022-08-22T14:25:34.742Z,50.11
2022-08-22T14:28:09.221Z,49.36
2022-08-22T14:30:38.410Z,50.18
2022-08-22T14:33:08.517Z,49.47
2022-08-22T14:35:37.984Z,48.95
2022-08-22T14:38:18.105Z,49.22
2022-08-22T14:40:46.035Z,49.17
2022-08-22T14:43:17.358Z,49.89
2022-08-22T14:45:54.908Z,50.40
2022-08-22T14:48:31.377Z,51.00
2022-08-22T14:51:00.841Z,51.09
2022-08-22T14:53:33.321Z,50.73
2022-08-22T14:56:01.880Z,50.93
2022-08-22T14:58:29.844Z,51.43
2022-08-22T15:00:57.462Z,51.23
2022-08-22T15:03:26.038Z,51.08
2022-08-22T15:05:54.975Z,51.74
2022-08-22T15:08:24.280Z,51.80
2022-08-22T15:11:10.569Z,51.75
2022-08-22T15:13:38.946Z,52.41
2022-08-22T15:16:14.087Z,51.73
2022-08-22T15:18:51.692Z,51.92
2022-08-22T15:21:24.466Z,52.13
2022-08-22T15:23:53.207Z,50.87
2022-08-22T15:26:24.373Z,51.47
2022-08-22T15:28:56.936Z,50.70
2022-08-22T15:31:24.983Z,50.09
2022-08-22T15:33:52.970Z,50.04
2022-08-22T15:36:22.052Z,49.93
2022-08-22T15:38:50.159Z,49.90
2022-08-22T15:41:31.686Z,50.76
2022-08-22T15:44:05.787Z,51.13
2022-08-22T15:46:33.889Z,50.57
2022-08-22T15:49:01.756Z,50.79
2022-08-22T15:51:33.677Z,50.36
2022-08-22T15:54:02.678Z,50.98
2022-08-22T15:56:45.832Z,51.32
2022-08-22T15:59:47.759Z,51.78
2022-08-22T16:02:24.293Z,52.05
2022-08-22T16:05:03.188Z,51.86
2022-08-22T16:07:39.144Z,51.53
2022-08-22T16:10:14.513Z,51.98
2022-08-22T16:12:44.240Z,52.04
2022-08-22T16:15:26.743Z,52.18
2022-08-22T16:17:54.627Z,52.46
2022-08-22T16:20:41.244Z,52.10
2022-08-22T16:23:08.839Z,52.25
2022-08-22T16:25:55.120Z,52.11
2022-08-22T16:28:54.301Z,51.87
2022-08-22T16:31:18.602Z,52.16
2022-08-22T16:33:46.132Z,52.32
2022-08-22T16:36:17.279Z,52.29
2022-08-22T16:38:45.135Z,51.72
2022-08-22T16:41:32.311Z,52.22
2022-08-22T16:44:18.618Z,52.52
2022-08-22T16:46:47.744Z,52.71
2022-08-22T16:49:24.196Z,52.45
2022-08-22T16:52:10.461Z,52.52
2022-08-22T16:54:44.469Z,53.11
2022-08-22T16:57:15.070Z,52.94
2022-08-22T16:59:49.115Z,52.76
2022-08-22T17:02:31.545Z,52.89
2022-08-22T17:05:03.590Z,52.75
2022-08-22T17:07:34.010Z,52.84
2022-08-22T17:10:11.623Z,52.34
2022-08-22T17:12:47.700Z,52.97
2022-08-22T17:15:18.163Z,52.96
2022-08-22T17:17:55.547Z,53.38
2022-08-22T17:20:24.548Z,53.38
2022-08-22T17:22:57.997Z,53.41
2022-08-22T17:25:28.413Z,53.74
2022-08-22T17:28:01.532Z,53.71
2022-08-22T17:30:30.273Z,54.04
2022-08-22T17:33:03.340Z,53.91
2022-08-22T17:35:37.070Z,53.93
2022-08-22T17:38:06.732Z,54.10
2022-08-22T17:40:38.086Z,53.97
2022-08-22T17:43:11.058Z,53.72
2022-08-22T17:45:47.005Z,54.36
2022-08-22T17:48:16.709Z,54.20
2022-08-22T17:50:45.989Z,54.35
2022-08-22T17:53:16.029Z,53.98
2022-08-22T17:55:53.669Z,54.34
2022-08-22T17:58:35.717Z,54.30
2022-08-22T18:01:13.573Z,54.64
2022-08-22T18:03:43.626Z,54.64
2022-08-22T18:06:11.825Z,54.69
2022-08-22T18:11:30.958Z,54.73
2022-08-22T18:14:09.550Z,54.61
2022-08-22T18:16:38.920Z,54.64
2022-08-22T18:19:09.269Z,54.81
2022-08-22T18:21:38.180Z,54.90
2022-08-22T18:24:18.309Z,54.91
2022-08-22T18:26:47.138Z,55.04
2022-08-22T18:29:16.035Z,55.33
2022-08-22T18:31:49.352Z,55.28
2022-08-22T18:34:23.400Z,55.15
2022-08-22T18:36:55.373Z,55.16
2022-08-22T18:39:26.486Z,55.39
2022-08-22T18:41:58.537Z,55.35
2022-08-22T18:44:29.575Z,55.55
2022-08-22T18:46:57.185Z,55.96
2022-08-22T18:49:43.543Z,55.85
2022-08-22T18:52:28.874Z,55.85
2022-08-22T18:55:04.159Z,55.73
2022-08-22T18:57:38.780Z,55.46
2022-08-22T19:00:13.140Z,55.55
2022-08-22T19:03:01.034Z,55.80
2022-08-22T19:05:32.560Z,55.78
2022-08-22T19:08:33.455Z,55.96
2022-08-22T19:11:21.638Z,55.82
2022-08-22T19:13:56.659Z,55.78
2022-08-22T19:16:38.339Z,55.85
2022-08-22T19:19:06.938Z,55.74
2022-08-22T19:22:17.296Z,55.52
2022-08-22T19:24:59.994Z,55.73
2022-08-22T19:27:31.284Z,56.03
2022-08-22T19:30:02.268Z,55.97
2022-08-22T19:32:44.914Z,55.88
2022-08-22T19:35:16.940Z,55.58
2022-08-22T19:37:51.667Z,55.89
2022-08-22T19:40:34.186Z,55.59
2022-08-22T19:43:01.838Z,55.76
2022-08-22T19:45:32.293Z,55.57
2022-08-22T19:48:00.874Z,56.00
2022-08-22T19:50:31.789Z,55.83
2022-08-22T19:53:04.018Z,55.98
2022-08-22T19:55:34.157Z,55.95
2022-08-22T19:58:04.333Z,56.12
2022-08-22T20:00:44.632Z,55.96
2022-08-22T20:03:15.284Z,56.07
2022-08-22T20:05:47.480Z,56.27
2022-08-22T20:08:27.839Z,56.19
2022-08-22T20:10:58.656Z,56.36
2022-08-22T20:13:26.760Z,56.12
2022-08-22T20:16:10.974Z,56.24
2022-08-22T20:19:08.924Z,56.50
2022-08-22T20:21:40.668Z,56.27
2022-08-22T20:24:08.823Z,56.29
2022-08-22T20:26:47.486Z,56.29
2022-08-22T20:29:25.906Z,56.56
2022-08-22T20:31:58.638Z,56.51
2022-08-22T20:34:27.203Z,56.56
2022-08-22T20:37:09.866Z,56.66
2022-08-22T20:39:43.669Z,56.75
2022-08-22T20:42:13.901Z,56.61
2022-08-22T20:44:43.072Z,56.75
2022-08-22T20:47:12.983Z,56.86
2022-08-22T20:49:47.751Z,56.73
2022-08-22T20:52:22.596Z,56.81
2022-08-22T20:54:58.637Z,56.85
2022-08-22T20:57:27.381Z,57.01
2022-08-22T20:59:55.532Z,56.70
2022-08-22T21:02:25.075Z,56.93
2022-08-22T21:04:53.754Z,57.05
2022-08-22T21:07:22.774Z,57.05
2022-08-22T21:10:12.146Z,56.92
2022-08-22T21:12:39.861Z,57.26
2022-08-22T21:15:07.829Z,57.35
2022-08-22T21:17:39.329Z,57.24
2022-08-22T21:20:16.671Z,57.38
2022-08-22T21:22:44.300Z,57.42
2022-08-22T21:25:11.810Z,57.46
2022-08-22T21:27:39.389Z,57.43
2022-08-22T21:30:07.997Z,57.54
2022-08-22T21:32:37.127Z,57.34
2022-08-22T21:35:04.972Z,57.24
2022-08-22T21:37:37.132Z,57.52
2022-08-22T21:40:08.319Z,57.37
2022-08-22T21:42:43.514Z,57.27
2022-08-22T21:45:31.261Z,57.32
2022-08-22T21:48:00.490Z,57.43
2022-08-22T21:50:31.719Z,57.22
2022-08-22T21:53:03.714Z,57.20
2022-08-22T21:55:32.776Z,57.14
2022-08-22T21:58:02.862Z,57.06
2022-08-22T22:00:49.014Z,57.39
2022-08-22T22:03:19.338Z,57.15
2022-08-22T22:05:46.931Z,57.30
2022-08-22T22:08:14.733Z,57.16
2022-08-22T22:10:42.881Z,57.21
2022-08-22T22:13:10.622Z,57.15
2022-08-22T22:15:38.787Z,57.30
2022-08-22T22:18:06.634Z,57.19
2022-08-22T22:20:35.493Z,57.25
2022-08-22T22:23:03.018Z,57.58
2022-08-22T22:25:40.998Z,57.45
2022-08-22T22:28:10.348Z,57.32
2022-08-22T22:30:37.945Z,57.33
2022-08-22T22:33:05.654Z,57.40
2022-08-22T22:35:33.378Z,57.19
2022-08-22T22:38:02.617Z,57.28
2022-08-22T22:40:30.709Z,57.21
2022-08-22T22:42:58.395Z,57.08
2022-08-22T22:45:25.896Z,57.09
2022-08-22T22:47:53.448Z,57.36
2022-08-22T22:50:21.086Z,57.53
2022-08-22T22:52:48.602Z,57.30
2022-08-22T22:55:24.621Z,57.50
2022-08-22T22:57:58.385Z,57.18
2022-08-22T23:00:30.526Z,57.45
2022-08-22T23:02:58.918Z,57.35
2022-08-22T23:05:26.440Z,57.25
2022-08-22T23:07:53.991Z,57.40
2022-08-22T23:10:22.915Z,57.66
2022-08-22T23:12:50.832Z,57.40
2022-08-22T23:15:18.428Z,57.46
2022-08-22T23:17:46.153Z,57.61
2022-08-22T23:20:13.843Z,57.56
2022-08-22T23:22:42.852Z,57.88
2022-08-22T23:25:10.359Z,57.78
2022-08-22T23:27:39.274Z,57.89
2022-08-22T23:30:08.661Z,57.64
2022-08-22T23:32:36.786Z,57.66
2022-08-22T23:35:04.464Z,57.70
2022-08-22T23:37:31.984Z,57.78
2022-08-22T23:39:59.504Z,57.95
2022-08-22T23:42:29.066Z,57.83
2022-08-22T23:44:57.948Z,57.76
2022-08-22T23:47:25.481Z,57.99
2022-08-22T23:49:53.070Z,57.89
2022-08-22T23:52:20.804Z,57.92
2022-08-22T23:54:48.441Z,58.13
2022-08-22T23:57:27.355Z,57.92
2022-08-22T23:59:57.760Z,58.13
